createdAt,value
2023-03-08T00:00:53.975Z,6.83
2023-03-08T00:03:21.302Z,7.67
2023-03-08T00:05:48.604Z,6.97
2023-03-08T00:08:17.600Z,6.93
2023-03-08T00:10:45.268Z,7.20
2023-03-08T00:13:12.725Z,7.50
2023-03-08T00:15:40.779Z,4.93
2023-03-08T00:18:08.206Z,7.10
2023-03-08T00:20:35.684Z,7.93
2023-03-08T00:23:03.242Z,7.30
2023-03-08T00:25:30.526Z,7.13
2023-03-08T00:27:57.833Z,7.80
2023-03-08T00:30:25.214Z,7.07
2023-03-08T00:32:52.686Z,7.77
2023-03-08T00:35:22.688Z,6.83
2023-03-08T00:37:49.956Z,7.43
2023-03-08T00:40:19.452Z,7.17
2023-03-08T00:42:46.737Z,6.70
2023-03-08T00:45:14.358Z,7.23
2023-03-08T00:47:42.034Z,7.50
2023-03-08T00:50:10.098Z,7.10
2023-03-08T00:52:37.435Z,7.07
2023-03-08T00:55:04.936Z,7.97
2023-03-08T00:57:33.503Z,7.37
2023-03-08T01:00:01.289Z,6.73
2023-03-08T01:02:28.586Z,7.67
2023-03-08T01:04:57.328Z,7.40
2023-03-08T01:07:27.310Z,8.23
2023-03-08T01:09:56.146Z,7.50
2023-03-08T01:12:25.557Z,8.50
2023-03-08T01:14:54.041Z,7.87
2023-03-08T01:17:21.349Z,7.37
2023-03-08T01:19:48.655Z,7.07
2023-03-08T01:22:16.100Z,7.43
2023-03-08T01:24:47.871Z,8.23
2023-03-08T01:27:16.671Z,9.03
2023-03-08T01:29:44.806Z,8.40
2023-03-08T01:32:12.643Z,7.77
2023-03-08T01:34:40.249Z,8.00
2023-03-08T01:37:07.518Z,7.83
2023-03-08T01:39:34.973Z,7.67
2023-03-08T01:42:07.433Z,6.57
2023-03-08T01:45:28.361Z,7.23
2023-03-08T01:47:56.019Z,7.87
2023-03-08T01:50:23.412Z,5.03
2023-03-08T01:52:54.234Z,7.93
2023-03-08T01:55:21.690Z,7.60
2023-03-08T01:57:58.399Z,7.07
2023-03-08T02:00:27.602Z,7.47
2023-03-08T02:02:57.027Z,7.57
2023-03-08T02:05:25.797Z,7.67
2023-03-08T02:07:53.178Z,7.77
2023-03-08T02:10:21.434Z,8.10
2023-03-08T02:12:49.110Z,8.27
2023-03-08T02:15:20.504Z,8.17
2023-03-08T02:17:48.376Z,8.03
2023-03-08T02:20:22.022Z,8.83
2023-03-08T02:22:53.480Z,7.60
2023-03-08T02:25:23.844Z,8.03
2023-03-08T02:27:53.816Z,7.70
2023-03-08T02:30:35.073Z,7.50
2023-03-08T02:33:04.018Z,8.10
2023-03-08T02:35:31.694Z,7.07
2023-03-08T02:37:58.969Z,8.27
2023-03-08T02:40:29.277Z,8.70
2023-03-08T02:42:56.833Z,8.70
2023-03-08T02:45:24.223Z,8.00
2023-03-08T02:47:51.623Z,8.17
2023-03-08T02:50:19.086Z,8.33
2023-03-08T02:52:46.656Z,9.27
2023-03-08T02:55:14.011Z,8.97
2023-03-08T02:57:41.506Z,9.73
2023-03-08T03:00:09.760Z,11.47
2023-03-08T03:02:37.346Z,11.73
2023-03-08T03:05:11.377Z,12.43
2023-03-08T03:07:43.614Z,12.43
2023-03-08T03:10:13.377Z,12.57
2023-03-08T03:12:41.393Z,12.33
2023-03-08T03:15:10.379Z,12.43
2023-03-08T03:17:38.383Z,11.57
2023-03-08T03:20:09.511Z,13.77
2023-03-08T03:22:37.450Z,15.50
2023-03-08T03:25:05.440Z,16.23
2023-03-08T03:27:32.914Z,15.30
2023-03-08T03:30:00.301Z,14.80
2023-03-08T03:32:27.973Z,15.83
2023-03-08T03:34:55.591Z,17.27
2023-03-08T03:37:22.884Z,16.13
2023-03-08T03:39:50.477Z,17.10
2023-03-08T03:42:18.810Z,18.37
2023-03-08T03:44:46.128Z,17.03
2023-03-08T03:47:13.473Z,16.73
2023-03-08T03:49:40.746Z,16.83
2023-03-08T03:52:08.159Z,15.93
2023-03-08T03:54:35.665Z,15.23
2023-03-08T03:57:03.088Z,15.47
2023-03-08T03:59:30.481Z,15.60
2023-03-08T04:01:57.825Z,15.53
2023-03-08T04:04:25.063Z,16.07
2023-03-08T04:06:52.528Z,12.40
2023-03-08T04:09:20.230Z,8.73
2023-03-08T04:11:47.529Z,7.50
2023-03-08T04:14:15.517Z,7.43
2023-03-08T04:16:42.801Z,8.10
2023-03-08T04:19:13.732Z,7.67
2023-03-08T04:21:41.040Z,7.83
2023-03-08T04:24:08.906Z,7.60
2023-03-08T04:26:36.268Z,7.83
2023-03-08T04:29:06.423Z,8.90
2023-03-08T04:31:35.602Z,8.33
2023-03-08T04:34:03.829Z,8.67
2023-03-08T04:36:31.635Z,9.00
2023-03-08T04:38:59.780Z,8.53
2023-03-08T04:41:27.253Z,9.07
2023-03-08T04:43:57.102Z,9.40
2023-03-08T04:46:28.954Z,8.87
2023-03-08T04:48:56.556Z,9.87
2023-03-08T04:51:25.967Z,9.63
2023-03-08T04:53:53.657Z,10.40
2023-03-08T04:56:20.977Z,9.90
2023-03-08T04:58:48.932Z,9.80
2023-03-08T05:01:23.316Z,10.50
2023-03-08T05:03:51.971Z,9.10
2023-03-08T05:06:20.582Z,9.47
2023-03-08T05:08:48.622Z,12.10
2023-03-08T05:11:24.363Z,11.40
2023-03-08T05:13:54.644Z,9.63
2023-03-08T05:16:22.578Z,7.93
2023-03-08T05:18:50.191Z,9.50
2023-03-08T05:21:20.579Z,9.70
2023-03-08T05:23:48.530Z,8.67
2023-03-08T05:26:17.844Z,10.43
2023-03-08T05:28:45.805Z,8.30
2023-03-08T05:31:16.031Z,6.17
2023-03-08T05:33:46.745Z,6.00
2023-03-08T05:36:15.294Z,5.23
2023-03-08T05:38:42.833Z,5.83
2023-03-08T05:41:14.072Z,6.73
2023-03-08T05:43:41.427Z,7.13
2023-03-08T05:46:17.819Z,7.17
2023-03-08T05:48:45.746Z,5.20
2023-03-08T05:51:16.395Z,5.87
2023-03-08T05:53:44.789Z,6.40
2023-03-08T05:56:18.286Z,5.93
2023-03-08T05:58:48.033Z,5.87
2023-03-08T06:01:25.615Z,4.47
2023-03-08T06:03:55.429Z,5.10
2023-03-08T06:06:24.906Z,5.37
2023-03-08T06:08:53.035Z,5.17
2023-03-08T06:11:20.641Z,5.53
2023-03-08T06:13:48.030Z,5.67
2023-03-08T06:16:15.528Z,5.97
2023-03-08T06:18:43.510Z,6.07
2023-03-08T06:21:19.591Z,4.83
2023-03-08T06:23:47.232Z,5.77
2023-03-08T06:26:15.170Z,6.50
2023-03-08T06:28:43.063Z,5.87
2023-03-08T06:31:15.097Z,5.17
2023-03-08T06:33:42.519Z,5.03
2023-03-08T06:36:12.904Z,4.37
2023-03-08T06:38:41.232Z,4.63
2023-03-08T06:41:09.750Z,7.50
2023-03-08T06:43:37.616Z,10.70
2023-03-08T06:46:09.255Z,15.43
2023-03-08T06:48:37.623Z,12.33
2023-03-08T06:51:05.984Z,10.93
2023-03-08T06:53:36.322Z,11.17
2023-03-08T06:56:05.000Z,11.27
2023-03-08T06:58:32.678Z,9.63
2023-03-08T07:01:00.357Z,8.93
2023-03-08T07:03:28.514Z,9.00
2023-03-08T07:06:03.329Z,9.03
2023-03-08T07:08:31.485Z,9.07
2023-03-08T07:10:59.623Z,9.33
2023-03-08T07:13:27.033Z,9.37
2023-03-08T07:15:54.371Z,8.37
2023-03-08T07:18:21.956Z,9.13
2023-03-08T07:20:59.172Z,8.80
2023-03-08T07:23:26.567Z,8.70
2023-03-08T07:25:53.997Z,10.43
2023-03-08T07:28:21.603Z,13.47
2023-03-08T07:30:50.545Z,14.90
2023-03-08T07:33:20.019Z,13.87
2023-03-08T07:35:47.522Z,19.73
2023-03-08T07:38:15.789Z,13.07
2023-03-08T07:40:43.525Z,12.87
2023-03-08T07:43:10.891Z,18.93
2023-03-08T07:45:42.082Z,12.83
2023-03-08T07:48:09.418Z,16.30
2023-03-08T07:50:37.171Z,13.60
2023-03-08T07:53:04.950Z,11.03
2023-03-08T07:55:32.299Z,14.57
2023-03-08T07:57:59.670Z,10.53
2023-03-08T08:00:27.374Z,21.87
2023-03-08T08:02:55.506Z,20.87
2023-03-08T08:05:23.325Z,18.73
2023-03-08T08:07:50.780Z,18.53
2023-03-08T08:10:18.599Z,17.53
2023-03-08T08:12:45.931Z,15.90
2023-03-08T08:15:13.479Z,13.00
2023-03-08T08:17:40.833Z,11.97
2023-03-08T08:20:08.910Z,17.17
2023-03-08T08:22:37.960Z,11.30
2023-03-08T08:25:07.110Z,21.83
2023-03-08T08:27:36.954Z,24.77
2023-03-08T08:30:06.239Z,15.53
2023-03-08T08:32:37.121Z,15.90
2023-03-08T08:35:05.128Z,21.70
2023-03-08T08:37:33.726Z,20.90
2023-03-08T08:40:01.141Z,19.03
2023-03-08T08:42:28.589Z,23.27
2023-03-08T08:44:56.101Z,20.80
2023-03-08T08:47:23.420Z,20.77
2023-03-08T08:49:51.928Z,20.50
2023-03-08T08:52:19.510Z,21.03
2023-03-08T08:54:46.944Z,17.80
2023-03-08T08:57:14.267Z,27.97
2023-03-08T08:59:41.655Z,27.27
2023-03-08T09:02:12.306Z,29.30
2023-03-08T09:04:39.785Z,21.67
2023-03-08T09:07:07.721Z,23.23
2023-03-08T09:09:35.033Z,26.37
2023-03-08T09:12:02.405Z,28.03
2023-03-08T09:14:29.651Z,22.03
2023-03-08T09:16:57.095Z,17.23
2023-03-08T09:19:24.483Z,20.07
2023-03-08T09:21:51.953Z,18.67
2023-03-08T09:24:19.212Z,17.90
2023-03-08T09:26:46.766Z,28.00
2023-03-08T09:29:14.116Z,45.27
2023-03-08T09:31:43.793Z,40.40
2023-03-08T09:34:15.858Z,28.97
2023-03-08T09:36:43.796Z,22.20
2023-03-08T09:39:13.365Z,22.70
2023-03-08T09:41:48.477Z,29.63
2023-03-08T09:44:49.022Z,16.63
2023-03-08T09:47:40.469Z,14.83
2023-03-08T09:50:07.929Z,11.17
2023-03-08T09:52:48.834Z,16.03
2023-03-08T09:55:32.487Z,11.63
2023-03-08T09:58:14.050Z,9.43
2023-03-08T10:00:42.147Z,8.97
2023-03-08T10:03:36.328Z,7.47
2023-03-08T10:06:21.939Z,5.40
2023-03-08T10:09:18.946Z,7.70
2023-03-08T10:11:52.153Z,7.83
2023-03-08T10:14:24.483Z,7.20
2023-03-08T10:16:57.606Z,12.53
2023-03-08T10:19:42.722Z,44.63
2023-03-08T10:22:28.386Z,22.63
2023-03-08T10:25:18.759Z,29.40
2023-03-08T10:27:51.766Z,10.53
2023-03-08T10:30:22.588Z,8.37
2023-03-08T10:32:56.406Z,18.37
2023-03-08T10:35:57.274Z,15.83
2023-03-08T10:38:27.669Z,17.93
2023-03-08T10:41:17.223Z,11.10
2023-03-08T10:43:51.880Z,14.03
2023-03-08T10:46:22.500Z,20.87
2023-03-08T10:48:50.173Z,9.60
2023-03-08T10:51:29.032Z,14.77
2023-03-08T10:54:03.208Z,17.23
2023-03-08T10:56:56.575Z,11.03
2023-03-08T10:59:32.699Z,7.90
2023-03-08T11:02:18.846Z,18.97
2023-03-08T11:04:55.056Z,10.77
2023-03-08T11:07:29.443Z,11.33
2023-03-08T11:10:17.335Z,14.73
2023-03-08T11:12:45.575Z,7.07
2023-03-08T11:15:18.455Z,12.93
2023-03-08T11:18:17.411Z,12.70
2023-03-08T11:20:57.461Z,10.40
2023-03-08T11:23:44.865Z,11.97
2023-03-08T11:26:24.212Z,11.67
2023-03-08T11:29:08.323Z,9.70
2023-03-08T11:32:02.197Z,9.27
2023-03-08T11:34:47.603Z,7.30
2023-03-08T11:37:39.130Z,19.80
2023-03-08T11:40:33.219Z,13.07
2023-03-08T11:43:28.121Z,9.27
2023-03-08T11:46:20.437Z,10.40
2023-03-08T11:48:56.775Z,8.13
2023-03-08T11:52:06.642Z,14.30
2023-03-08T11:54:41.004Z,21.10
2023-03-08T11:57:12.521Z,8.57
2023-03-08T11:59:45.058Z,16.23
2023-03-08T12:02:30.489Z,21.47
2023-03-08T12:05:02.525Z,11.00
2023-03-08T12:08:02.662Z,13.27
2023-03-08T12:10:54.895Z,15.30
2023-03-08T12:13:31.035Z,20.73
2023-03-08T12:16:14.058Z,11.53
2023-03-08T12:19:02.024Z,12.03
2023-03-08T12:21:35.215Z,12.30
2023-03-08T12:24:25.403Z,11.57
2023-03-08T12:26:56.680Z,11.97
2023-03-08T12:29:29.368Z,18.83
2023-03-08T12:31:57.335Z,15.13
2023-03-08T12:34:36.527Z,17.40
2023-03-08T12:37:04.561Z,15.63
2023-03-08T12:39:37.239Z,16.33
2023-03-08T12:42:10.617Z,13.93
2023-03-08T12:44:39.149Z,12.87
2023-03-08T12:47:12.658Z,11.27
2023-03-08T12:49:46.775Z,13.83
2023-03-08T12:52:20.204Z,13.47
2023-03-08T12:55:11.291Z,15.03
2023-03-08T12:57:46.914Z,22.10
2023-03-08T13:00:34.157Z,19.27
2023-03-08T13:03:26.869Z,17.93
2023-03-08T13:05:54.365Z,15.93
2023-03-08T13:08:40.239Z,11.67
2023-03-08T13:11:17.376Z,10.63
2023-03-08T13:14:06.319Z,9.87
2023-03-08T13:16:37.012Z,12.70
2023-03-08T13:19:16.905Z,15.07
2023-03-08T13:22:03.689Z,9.97
2023-03-08T13:25:04.085Z,12.87
2023-03-08T13:27:54.359Z,19.43
2023-03-08T13:30:30.620Z,17.90
2023-03-08T13:32:58.767Z,14.73
2023-03-08T13:35:26.195Z,13.47
2023-03-08T13:38:01.105Z,21.90
2023-03-08T13:40:30.730Z,17.23
2023-03-08T13:43:08.899Z,14.90
2023-03-08T13:45:36.442Z,13.43
2023-03-08T13:48:09.093Z,14.17
2023-03-08T13:50:39.196Z,12.43
2023-03-08T13:53:22.295Z,12.70
2023-03-08T13:55:55.181Z,12.87
2023-03-08T13:58:54.736Z,13.43
2023-03-08T14:01:25.361Z,13.60
2023-03-08T14:03:55.458Z,13.97
2023-03-08T14:06:31.465Z,13.50
2023-03-08T14:09:00.811Z,13.53
2023-03-08T14:11:38.556Z,15.57
2023-03-08T14:14:10.016Z,14.13
2023-03-08T14:16:42.249Z,13.90
2023-03-08T14:19:15.635Z,14.13
2023-03-08T14:21:51.692Z,13.33
2023-03-08T14:24:23.459Z,11.73
2023-03-08T14:27:00.739Z,13.17
2023-03-08T14:29:31.091Z,30.47
2023-03-08T14:32:13.351Z,34.83
2023-03-08T14:34:43.098Z,35.73
2023-03-08T14:37:22.616Z,101.60
2023-03-08T14:39:52.699Z,49.27
2023-03-08T14:42:27.148Z,31.23
2023-03-08T14:45:00.980Z,53.43
2023-03-08T14:47:31.418Z,65.80
2023-03-08T14:50:17.849Z,41.97
2023-03-08T14:52:51.901Z,15.40
2023-03-08T14:55:26.739Z,16.70
2023-03-08T14:57:59.118Z,17.00
2023-03-08T15:00:30.208Z,25.87
2023-03-08T15:02:58.943Z,12.10
2023-03-08T15:05:29.478Z,12.00
2023-03-08T15:07:59.671Z,19.27
2023-03-08T15:10:33.745Z,20.07
2023-03-08T15:13:01.317Z,45.60
2023-03-08T15:15:28.732Z,34.87
2023-03-08T15:17:56.225Z,39.77
2023-03-08T15:20:25.501Z,23.07
2023-03-08T15:23:00.247Z,17.97
2023-03-08T15:25:31.605Z,31.80
2023-03-08T15:27:58.920Z,19.47
2023-03-08T15:30:28.274Z,12.87
2023-03-08T15:32:59.046Z,26.30
2023-03-08T15:35:27.100Z,32.83
2023-03-08T15:37:54.379Z,10.60
2023-03-08T15:40:25.755Z,16.67
2023-03-08T15:42:53.528Z,10.57
2023-03-08T15:45:20.941Z,21.93
2023-03-08T15:47:57.862Z,13.30
2023-03-08T15:50:25.928Z,12.87
2023-03-08T15:52:54.929Z,13.17
2023-03-08T15:55:24.519Z,16.63
2023-03-08T15:57:52.585Z,14.67
2023-03-08T16:00:21.818Z,23.67
2023-03-08T16:02:50.138Z,18.33
2023-03-08T16:05:19.911Z,15.43
2023-03-08T16:07:47.431Z,20.83
2023-03-08T16:10:23.785Z,35.47
2023-03-08T16:12:51.444Z,35.97
2023-03-08T16:15:19.830Z,26.80
2023-03-08T16:17:47.080Z,22.67
2023-03-08T16:20:15.697Z,28.40
2023-03-08T16:22:43.384Z,45.13
2023-03-08T16:25:11.059Z,42.83
2023-03-08T16:27:38.513Z,56.30
2023-03-08T16:30:06.440Z,35.47
2023-03-08T16:32:34.393Z,37.67
2023-03-08T16:35:02.502Z,24.40
2023-03-08T16:37:29.848Z,41.03
2023-03-08T16:40:02.326Z,28.20
2023-03-08T16:42:30.344Z,27.57
2023-03-08T16:44:57.678Z,30.90
2023-03-08T16:47:26.355Z,35.60
2023-03-08T16:49:54.044Z,50.63
2023-03-08T16:52:21.596Z,47.00
2023-03-08T16:54:48.977Z,39.97
2023-03-08T16:57:19.622Z,54.37
2023-03-08T16:59:48.146Z,56.73
2023-03-08T17:02:21.438Z,40.93
2023-03-08T17:04:50.423Z,49.30
2023-03-08T17:07:18.322Z,42.57
2023-03-08T17:09:46.567Z,36.90
2023-03-08T17:12:14.204Z,36.77
2023-03-08T17:14:41.725Z,46.57
2023-03-08T17:17:10.643Z,82.77
2023-03-08T17:19:40.720Z,109.43
2023-03-08T17:22:09.871Z,92.80
2023-03-08T17:24:37.509Z,72.33
2023-03-08T17:27:05.173Z,53.40
2023-03-08T17:29:32.586Z,64.87
2023-03-08T17:31:59.870Z,63.50
2023-03-08T17:34:27.205Z,63.13
2023-03-08T17:36:54.556Z,291.70
2023-03-08T17:39:21.964Z,101.20
2023-03-08T17:41:50.390Z,64.10
2023-03-08T17:44:17.819Z,58.87
2023-03-08T17:46:45.957Z,52.70
2023-03-08T17:49:14.228Z,57.40
2023-03-08T17:51:42.832Z,41.73
2023-03-08T17:54:12.165Z,43.03
2023-03-08T17:56:41.194Z,39.53
2023-03-08T17:59:13.154Z,40.17
2023-03-08T18:01:40.952Z,50.07
2023-03-08T18:04:08.539Z,43.27
2023-03-08T18:06:39.015Z,35.03
2023-03-08T18:09:10.041Z,29.97
2023-03-08T18:11:42.487Z,36.57
2023-03-08T18:14:12.625Z,37.97
2023-03-08T18:16:40.684Z,29.20
2023-03-08T18:19:08.461Z,23.33
2023-03-08T18:21:37.241Z,32.07
2023-03-08T18:24:05.880Z,20.43
2023-03-08T18:26:33.903Z,22.90
2023-03-08T18:29:01.257Z,18.67
2023-03-08T18:31:32.555Z,19.33
2023-03-08T18:33:59.821Z,23.80
2023-03-08T18:36:27.351Z,21.83
2023-03-08T18:38:54.673Z,30.43
2023-03-08T18:41:26.464Z,32.37
2023-03-08T18:43:55.252Z,31.50
2023-03-08T18:46:30.651Z,24.73
2023-03-08T18:49:03.519Z,29.60
2023-03-08T18:51:32.323Z,39.00
2023-03-08T18:54:03.767Z,20.37
2023-03-08T18:56:31.666Z,18.23
2023-03-08T18:59:01.782Z,20.03
2023-03-08T19:01:30.738Z,19.40
2023-03-08T19:04:04.420Z,22.33
2023-03-08T19:06:32.120Z,22.17
2023-03-08T19:08:59.464Z,23.73
2023-03-08T19:11:28.193Z,30.37
2023-03-08T19:13:55.908Z,32.03
2023-03-08T19:16:28.787Z,39.20
2023-03-08T19:18:59.444Z,268.80
2023-03-08T19:21:29.593Z,186.30
2023-03-08T19:23:58.047Z,357.93
2023-03-08T19:26:36.394Z,99.10
2023-03-08T19:29:16.058Z,66.00
2023-03-08T19:31:57.027Z,30.37
2023-03-08T19:34:42.610Z,30.20
2023-03-08T19:37:12.514Z,29.67
2023-03-08T19:39:40.633Z,31.60
2023-03-08T19:42:14.751Z,36.67
2023-03-08T19:44:42.634Z,47.50
2023-03-08T19:47:10.012Z,48.67
2023-03-08T19:49:38.967Z,41.40
2023-03-08T19:52:07.309Z,43.73
2023-03-08T19:54:34.702Z,39.03
2023-03-08T19:57:02.830Z,47.73
2023-03-08T19:59:30.230Z,36.47
2023-03-08T20:01:58.022Z,64.37
2023-03-08T20:04:25.318Z,59.53
2023-03-08T20:06:53.349Z,70.80
2023-03-08T20:09:21.883Z,55.63
2023-03-08T20:11:57.597Z,66.07
2023-03-08T20:14:27.604Z,57.00
2023-03-08T20:16:55.737Z,62.83
2023-03-08T20:19:23.398Z,64.33
2023-03-08T20:21:50.937Z,70.70
2023-03-08T20:24:19.299Z,70.20
2023-03-08T20:26:47.275Z,52.77
2023-03-08T20:29:14.719Z,66.77
2023-03-08T20:31:42.388Z,67.63
2023-03-08T20:34:09.872Z,62.47
2023-03-08T20:36:37.837Z,63.73
2023-03-08T20:39:05.713Z,70.70
2023-03-08T20:41:33.545Z,62.67
2023-03-08T20:44:00.968Z,40.33
2023-03-08T20:46:33.605Z,35.77
2023-03-08T20:49:01.992Z,73.57
2023-03-08T20:51:29.642Z,114.97
2023-03-08T20:53:57.669Z,75.37
2023-03-08T20:56:25.921Z,63.37
2023-03-08T20:58:56.063Z,106.93
2023-03-08T21:01:27.556Z,91.33
2023-03-08T21:03:54.968Z,70.07
2023-03-08T21:06:26.004Z,61.20
2023-03-08T21:08:53.758Z,85.50
2023-03-08T21:11:21.328Z,83.27
2023-03-08T21:13:49.761Z,52.67
2023-03-08T21:16:19.670Z,85.57
2023-03-08T21:18:56.127Z,33.03
2023-03-08T21:21:33.363Z,41.53
2023-03-08T21:24:11.568Z,97.53
2023-03-08T21:26:39.032Z,87.97
2023-03-08T21:29:08.945Z,79.33
2023-03-08T21:31:40.015Z,51.47
2023-03-08T21:34:08.082Z,53.03
2023-03-08T21:36:38.141Z,58.43
2023-03-08T21:39:07.090Z,56.30
2023-03-08T21:41:36.945Z,67.57
2023-03-08T21:44:07.835Z,75.80
2023-03-08T21:46:37.080Z,101.77
2023-03-08T21:49:04.818Z,122.67
2023-03-08T21:51:34.054Z,106.23
2023-03-08T21:54:01.772Z,75.57
2023-03-08T21:56:29.077Z,80.93
2023-03-08T21:58:56.879Z,70.70
2023-03-08T22:01:27.343Z,65.53
2023-03-08T22:03:55.367Z,46.37
2023-03-08T22:06:23.844Z,46.60
2023-03-08T22:08:51.992Z,66.17
2023-03-08T22:11:20.071Z,57.00
2023-03-08T22:13:52.574Z,60.70
2023-03-08T22:16:20.761Z,91.80
2023-03-08T22:18:48.252Z,88.97
2023-03-08T22:21:15.555Z,82.20
2023-03-08T22:23:43.038Z,77.43
2023-03-08T22:26:11.106Z,62.47
2023-03-08T22:28:38.538Z,39.83
2023-03-08T22:31:14.368Z,31.47
2023-03-08T22:33:42.477Z,38.63
2023-03-08T22:36:12.207Z,35.33
2023-03-08T22:38:40.147Z,36.93
2023-03-08T22:41:16.314Z,40.80
2023-03-08T22:43:43.972Z,43.87
2023-03-08T22:46:16.418Z,46.53
2023-03-08T22:48:45.560Z,46.87
2023-03-08T22:51:13.828Z,41.83
2023-03-08T22:53:41.622Z,44.97
2023-03-08T22:56:24.476Z,49.00
2023-03-08T22:58:52.630Z,55.53
2023-03-08T23:01:22.668Z,49.67
2023-03-08T23:03:53.264Z,52.67
2023-03-08T23:06:20.681Z,54.97
2023-03-08T23:08:48.233Z,43.23
2023-03-08T23:11:15.988Z,38.43
2023-03-08T23:13:44.184Z,36.17
2023-03-08T23:16:15.797Z,33.37
2023-03-08T23:18:45.134Z,40.60
2023-03-08T23:21:14.852Z,38.83
2023-03-08T23:27:23.325Z,27.93
2023-03-08T23:29:53.611Z,26.13
2023-03-08T23:32:21.465Z,25.83
2023-03-08T23:34:49.132Z,25.57
2023-03-08T23:37:16.564Z,27.10
2023-03-08T23:39:44.050Z,26.77
2023-03-08T23:42:11.307Z,25.60
2023-03-08T23:44:38.933Z,36.47
2023-03-08T23:47:06.489Z,33.47
2023-03-08T23:49:34.258Z,34.60
2023-03-08T23:52:01.639Z,36.23
2023-03-08T23:54:28.988Z,37.10
2023-03-08T23:56:56.251Z,34.63
2023-03-08T23:59:23.897Z,39.23
